Terminal Aerodrome Forecast
Issued by NWS

Home | Current Version | Previous Version | Text Only | Print | Product List | Glossary On
Versions: 1 2 3 4 5 6 7 8 9 10 11 12 13 14 15 16 17
000
FTUS42 KTAE 292321
TAFVLD
TAF
KVLD 292321Z 3000/3024 VRB03KT P6SM OVC100
     FM300800 00000KT 3SM BR BKN003
     FM301400 08004KT P6SM SCT010 BKN040
     FM301800 09007KT P6SM VCTS SCT040CB
      TEMPO 3019/3023 VRB10G20KT 3SM TSRA=

USA.gov is the U.S. government's official web portal to all federal, state and local government web resources and services.